Time;durP1;ratioP1;P1;durP2;ratioP2;P2;SDS_P1;SDS_P2;PMS_P1;PMS_P2;Temp;Humidity;BMP_temperature;BMP_pressure;BME280_temperature;BME280_humidity;BME280_pressure;Samples;Min_cycle;Max_cycle;Signal;HPM_P1;HPM_P2
2022/03/19 00:01:37;;;;;;;4.18;3.78;;;;;;;;;;5095470;28;20243;-53
2022/03/19 00:04:05;;;;;;;3.75;3.45;;;;;;;;;;5096300;28;20572;-53
2022/03/19 00:06:33;;;;;;;4.05;3.60;;;;;;;;;;5096234;28;20206;-53
2022/03/19 00:09:01;;;;;;;3.92;3.60;;;;;;;;;;5096895;28;20219;-53
2022/03/19 00:11:28;;;;;;;3.63;3.33;;;;;;;;;;5096474;28;20215;-53
2022/03/19 00:13:58;;;;;;;3.90;3.60;;;;;;;;;;5096925;28;20587;-53
2022/03/19 00:16:25;;;;;;;4.00;3.67;;;;;;;;;;5096703;28;20214;-53
2022/03/19 00:18:53;;;;;;;3.80;3.50;;;;;;;;;;5096448;28;20207;-53
2022/03/19 00:21:21;;;;;;;4.15;3.30;;;;;;;;;;5097306;28;20216;-53
2022/03/19 00:23:49;;;;;;;3.83;3.53;;;;;;;;;;5096575;28;20204;-53
2022/03/19 00:26:17;;;;;;;4.10;3.70;;;;;;;;;;5096155;28;20212;-53
2022/03/19 00:28:45;;;;;;;3.67;3.38;;;;;;;;;;5096026;28;20219;-53
2022/03/19 00:31:14;;;;;;;3.88;3.58;;;;;;;;;;5096645;28;20249;-53
2022/03/19 00:33:41;;;;;;;3.90;3.50;;;;;;;;;;5096425;28;20487;-53
2022/03/19 00:36:09;;;;;;;3.72;3.33;;;;;;;;;;5096573;28;20433;-53
2022/03/19 00:38:37;;;;;;;3.67;3.38;;;;;;;;;;5096534;28;20200;-53
2022/03/19 00:41:06;;;;;;;3.65;3.35;;;;;;;;;;5095733;28;20215;-53
2022/03/19 00:43:34;;;;;;;3.63;3.33;;;;;;;;;;5096235;28;20211;-53
2022/03/19 00:46:01;;;;;;;3.33;3.05;;;;;;;;;;5096539;28;20364;-53
2022/03/19 00:48:31;;;;;;;3.58;3.28;;;;;;;;;;5095771;28;20267;-53
2022/03/19 00:50:58;;;;;;;3.30;3.00;;;;;;;;;;5096520;28;20242;-53
2022/03/19 00:53:26;;;;;;;3.30;3.00;;;;;;;;;;5095593;28;20253;-53
2022/03/19 00:55:53;;;;;;;3.30;2.97;;;;;;;;;;5096168;28;20227;-53
2022/03/19 00:58:21;;;;;;;3.60;3.30;;;;;;;;;;5095444;28;20199;-53
2022/03/19 01:00:49;;;;;;;3.28;2.97;;;;;;;;;;5096141;28;20204;-53
2022/03/19 01:03:17;;;;;;;2.95;2.72;;;;;;;;;;5095999;28;20255;-53
2022/03/19 01:05:46;;;;;;;3.20;2.90;;;;;;;;;;5096101;28;20208;-53
2022/03/19 01:08:13;;;;;;;3.10;2.90;;;;;;;;;;5095336;28;20219;-53
2022/03/19 01:10:41;;;;;;;3.50;3.20;;;;;;;;;;5095312;28;20273;-53
2022/03/19 01:13:09;;;;;;;2.83;2.60;;;;;;;;;;5095877;28;20226;-53
2022/03/19 01:15:37;;;;;;;3.50;3.20;;;;;;;;;;5095265;28;20285;-53
2022/03/19 01:18:05;;;;;;;3.40;3.10;;;;;;;;;;5096357;28;20199;-53
2022/03/19 01:20:33;;;;;;;3.42;3.13;;;;;;;;;;5095584;28;20204;-53
2022/03/19 01:23:05;;;;;;;3.35;3.05;;;;;;;;;;5096660;28;20215;-53
2022/03/19 01:25:33;;;;;;;3.17;2.88;;;;;;;;;;5076040;28;20204;-53
2022/03/19 01:28:01;;;;;;;3.35;3.05;;;;;;;;;;5076015;28;20216;-53
2022/03/19 01:30:29;;;;;;;3.08;2.83;;;;;;;;;;5076082;28;20323;-53
2022/03/19 01:32:57;;;;;;;3.33;3.00;;;;;;;;;;5076347;28;20214;-53
2022/03/19 01:35:25;;;;;;;3.33;2.97;;;;;;;;;;5076155;28;20204;-53
2022/03/19 01:37:52;;;;;;;3.50;3.20;;;;;;;;;;5076063;28;20208;-53
2022/03/19 01:40:21;;;;;;;2.90;2.70;;;;;;;;;;5076372;28;20299;-53
2022/03/19 01:42:49;;;;;;;2.90;2.70;;;;;;;;;;5076273;28;20212;-53
2022/03/19 01:45:18;;;;;;;3.42;3.13;;;;;;;;;;5075751;28;20204;-53
2022/03/19 01:47:47;;;;;;;2.97;2.78;;;;;;;;;;5075911;28;20236;-53
2022/03/19 01:50:15;;;;;;;2.67;2.47;;;;;;;;;;5075957;28;20467;-53
2022/03/19 01:52:43;;;;;;;3.15;2.90;;;;;;;;;;5095554;28;20204;-53
2022/03/19 01:55:11;;;;;;;3.28;2.97;;;;;;;;;;5097026;28;20493;-53
2022/03/19 01:57:42;;;;;;;2.67;2.47;;;;;;;;;;5095991;28;20207;-53
2022/03/19 02:00:12;;;;;;;2.88;2.67;;;;;;;;;;5096638;28;20204;-53
2022/03/19 02:02:39;;;;;;;3.25;2.95;;;;;;;;;;5096649;28;20204;-53
2022/03/19 02:05:08;;;;;;;3.00;2.80;;;;;;;;;;5095875;28;20249;-53
2022/03/19 02:07:35;;;;;;;3.20;2.90;;;;;;;;;;5096369;28;20695;-53
2022/03/19 02:10:03;;;;;;;2.85;2.65;;;;;;;;;;5096722;28;20231;-53
2022/03/19 02:12:31;;;;;;;3.08;2.78;;;;;;;;;;5096061;28;20587;-53
2022/03/19 02:15:00;;;;;;;2.80;2.60;;;;;;;;;;5096888;28;20277;-53
2022/03/19 02:17:28;;;;;;;2.92;2.72;;;;;;;;;;5096044;28;20269;-53
2022/03/19 02:19:57;;;;;;;3.25;2.95;;;;;;;;;;5095636;28;20599;-53
2022/03/19 02:22:27;;;;;;;2.90;2.70;;;;;;;;;;5095866;28;20207;-53
2022/03/19 02:27:41;;;;;;;2.88;2.65;;;;;;;;;;5095827;28;20589;-53
2022/03/19 02:30:11;;;;;;;2.70;2.50;;;;;;;;;;5096052;28;20270;-53
2022/03/19 02:32:40;;;;;;;3.33;2.90;;;;;;;;;;5095624;28;20196;-53
2022/03/19 02:35:08;;;;;;;2.90;2.70;;;;;;;;;;5096351;28;20204;-53
2022/03/19 02:37:39;;;;;;;3.22;2.80;;;;;;;;;;5096534;28;20207;-53
2022/03/19 02:40:10;;;;;;;3.08;2.88;;;;;;;;;;5096841;28;20605;-53
2022/03/19 02:42:37;;;;;;;3.10;2.80;;;;;;;;;;5099418;28;20273;-53
2022/03/19 02:45:06;;;;;;;3.10;2.80;;;;;;;;;;5100044;28;20290;-53
2022/03/19 02:47:33;;;;;;;2.65;2.45;;;;;;;;;;5098300;28;20597;-53
2022/03/19 02:50:01;;;;;;;3.15;2.85;;;;;;;;;;5099710;28;20238;-53
2022/03/19 02:52:29;;;;;;;4.10;3.22;;;;;;;;;;5099376;28;20558;-53
2022/03/19 02:54:57;;;;;;;2.80;2.60;;;;;;;;;;5099858;28;20235;-53
2022/03/19 02:57:26;;;;;;;3.38;3.08;;;;;;;;;;5099573;28;20216;-53
2022/03/19 02:59:53;;;;;;;3.53;3.22;;;;;;;;;;5099167;28;20302;-53
2022/03/19 03:02:21;;;;;;;3.25;2.63;;;;;;;;;;5098541;28;20227;-53
2022/03/19 03:04:49;;;;;;;3.17;2.88;;;;;;;;;;5099517;28;20258;-53
2022/03/19 03:07:17;;;;;;;3.47;3.17;;;;;;;;;;5098951;28;20265;-53
2022/03/19 03:09:46;;;;;;;2.90;2.70;;;;;;;;;;5099681;28;20223;-53
2022/03/19 03:12:15;;;;;;;2.97;2.78;;;;;;;;;;5099930;28;20203;-53
2022/03/19 03:14:44;;;;;;;3.47;3.17;;;;;;;;;;5099776;28;20203;-53
2022/03/19 03:17:11;;;;;;;2.90;2.70;;;;;;;;;;5099954;28;20215;-53
2022/03/19 03:19:39;;;;;;;3.22;2.97;;;;;;;;;;5099814;28;20207;-53
2022/03/19 03:22:10;;;;;;;3.33;3.03;;;;;;;;;;5099781;28;20298;-53
2022/03/19 03:24:38;;;;;;;2.83;2.63;;;;;;;;;;5099924;28;20210;-53
2022/03/19 03:27:05;;;;;;;3.40;3.10;;;;;;;;;;5099446;28;20239;-53
2022/03/19 03:29:33;;;;;;;3.17;2.88;;;;;;;;;;5099453;28;20242;-53
2022/03/19 03:32:02;;;;;;;2.95;2.67;;;;;;;;;;5099294;28;20203;-53
2022/03/19 03:34:30;;;;;;;3.00;2.80;;;;;;;;;;5099543;28;20223;-53
2022/03/19 03:36:58;;;;;;;3.30;3.00;;;;;;;;;;5099633;28;20269;-53
2022/03/19 03:39:25;;;;;;;3.05;2.85;;;;;;;;;;5099600;28;20199;-53
2022/03/19 03:41:53;;;;;;;3.45;3.15;;;;;;;;;;5099380;28;20302;-53
2022/03/19 03:44:21;;;;;;;3.15;2.85;;;;;;;;;;5098907;28;20285;-53
2022/03/19 03:46:49;;;;;;;3.30;3.00;;;;;;;;;;5098964;28;20727;-53
2022/03/19 03:49:18;;;;;;;3.35;3.08;;;;;;;;;;5098687;28;20289;-53
2022/03/19 03:51:46;;;;;;;3.17;2.88;;;;;;;;;;5098530;28;20630;-53
2022/03/19 03:54:13;;;;;;;3.53;3.22;;;;;;;;;;5098714;28;20467;-53
2022/03/19 03:56:41;;;;;;;3.30;3.00;;;;;;;;;;5098964;28;20203;-53
2022/03/19 03:59:09;;;;;;;3.63;3.33;;;;;;;;;;5098868;28;20291;-53
2022/03/19 04:01:37;;;;;;;3.75;3.25;;;;;;;;;;5098337;28;20200;-53
2022/03/19 04:04:04;;;;;;;3.60;3.30;;;;;;;;;;5098797;28;20226;-53
2022/03/19 04:06:33;;;;;;;3.38;3.08;;;;;;;;;;5098476;28;20242;-53
2022/03/19 04:09:01;;;;;;;3.60;3.30;;;;;;;;;;5098302;28;20227;-53
2022/03/19 04:11:29;;;;;;;3.47;3.10;;;;;;;;;;5098811;28;20214;-53
2022/03/19 04:13:56;;;;;;;3.20;2.90;;;;;;;;;;5098515;28;20247;-53
2022/03/19 04:16:24;;;;;;;3.45;3.15;;;;;;;;;;5098379;28;20208;-53
2022/03/19 04:18:52;;;;;;;3.58;3.28;;;;;;;;;;5098371;28;20265;-53
2022/03/19 04:21:19;;;;;;;3.78;3.35;;;;;;;;;;5098409;28;20204;-53
2022/03/19 04:23:49;;;;;;;3.83;3.40;;;;;;;;;;5098101;28;20571;-53
2022/03/19 04:26:17;;;;;;;3.50;3.20;;;;;;;;;;5097906;28;20207;-53
2022/03/19 04:28:44;;;;;;;3.60;3.30;;;;;;;;;;5097850;28;20200;-53
2022/03/19 04:31:12;;;;;;;4.32;3.53;;;;;;;;;;5097625;28;20214;-53
2022/03/19 04:33:39;;;;;;;3.40;3.10;;;;;;;;;;5097678;28;20298;-53
2022/03/19 04:38:53;;;;;;;4.63;3.67;;;;;;;;;;5083511;28;20253;-53
2022/03/19 04:41:21;;;;;;;3.80;3.50;;;;;;;;;;5098014;28;20214;-53
2022/03/19 04:43:49;;;;;;;3.80;3.50;;;;;;;;;;5098396;28;20215;-53
2022/03/19 04:46:16;;;;;;;3.72;3.42;;;;;;;;;;5097791;28;20239;-53
2022/03/19 04:48:45;;;;;;;3.55;3.25;;;;;;;;;;5097623;28;20218;-53
2022/03/19 04:51:14;;;;;;;3.55;3.25;;;;;;;;;;5097824;28;20281;-53
2022/03/19 04:53:42;;;;;;;3.78;3.47;;;;;;;;;;5097629;28;20203;-53
2022/03/19 04:56:12;;;;;;;4.32;3.22;;;;;;;;;;5096931;28;20200;-53
2022/03/19 04:58:39;;;;;;;3.80;3.40;;;;;;;;;;5096604;28;20204;-58
2022/03/19 05:01:07;;;;;;;3.55;3.20;;;;;;;;;;5096732;28;20302;-53
2022/03/19 05:03:35;;;;;;;3.67;3.38;;;;;;;;;;5096600;28;20211;-53
2022/03/19 05:06:02;;;;;;;3.70;3.40;;;;;;;;;;5096927;28;20203;-53
2022/03/19 05:08:30;;;;;;;4.03;3.40;;;;;;;;;;5097045;28;20365;-53
2022/03/19 05:11:18;;;;;;;3.88;3.45;;;;;;;;;;5096883;28;20250;-53
2022/03/19 05:13:48;;;;;;;3.97;3.45;;;;;;;;;;5097278;28;20279;-53
2022/03/19 05:16:18;;;;;;;3.90;3.50;;;;;;;;;;5097109;28;20550;-53
2022/03/19 05:18:46;;;;;;;3.80;3.50;;;;;;;;;;5096127;28;20203;-53
2022/03/19 05:21:14;;;;;;;3.60;3.30;;;;;;;;;;5096759;28;20719;-53
2022/03/19 05:23:44;;;;;;;3.67;3.38;;;;;;;;;;5096468;28;20204;-53
2022/03/19 05:26:12;;;;;;;3.53;3.22;;;;;;;;;;5096800;28;20496;-53
2022/03/19 05:28:39;;;;;;;3.70;3.40;;;;;;;;;;5096694;28;20598;-53
2022/03/19 05:31:09;;;;;;;3.65;3.35;;;;;;;;;;5096170;28;20675;-53
2022/03/19 05:36:24;;;;;;;3.72;3.42;;;;;;;;;;5096510;28;20621;-53
2022/03/19 05:38:52;;;;;;;3.47;3.17;;;;;;;;;;5097371;28;20208;-53
2022/03/19 05:41:19;;;;;;;3.42;3.08;;;;;;;;;;5097010;28;20210;-53
2022/03/19 05:43:47;;;;;;;3.88;3.58;;;;;;;;;;5096663;28;20208;-53
2022/03/19 05:46:16;;;;;;;4.07;3.70;;;;;;;;;;5096754;28;20272;-53
2022/03/19 05:48:43;;;;;;;3.65;3.35;;;;;;;;;;5096831;28;20216;-53
2022/03/19 05:51:11;;;;;;;3.83;3.40;;;;;;;;;;5096519;28;20619;-53
2022/03/19 05:53:41;;;;;;;3.83;3.53;;;;;;;;;;5096516;28;20294;-53
2022/03/19 05:56:08;;;;;;;3.72;3.35;;;;;;;;;;5096084;28;20535;-53
2022/03/19 05:58:36;;;;;;;4.65;3.53;;;;;;;;;;5097128;28;20436;-53
2022/03/19 06:01:03;;;;;;;3.88;3.53;;;;;;;;;;5096301;28;20265;-53
2022/03/19 06:03:33;;;;;;;4.25;3.85;;;;;;;;;;5096518;28;20536;-53
2022/03/19 06:06:00;;;;;;;3.88;3.58;;;;;;;;;;5096113;28;20242;-53
2022/03/19 06:08:28;;;;;;;3.63;3.33;;;;;;;;;;5096658;28;20203;-53
2022/03/19 06:10:56;;;;;;;3.53;3.22;;;;;;;;;;5095857;28;20698;-53
2022/03/19 06:13:24;;;;;;;3.70;3.20;;;;;;;;;;5096163;28;20504;-53
2022/03/19 06:15:52;;;;;;;3.88;3.58;;;;;;;;;;5098375;28;20576;-53
2022/03/19 06:18:20;;;;;;;5.03;3.90;;;;;;;;;;5098917;28;20199;-53
2022/03/19 06:20:49;;;;;;;4.15;3.75;;;;;;;;;;5099746;28;20269;-53
2022/03/19 06:23:17;;;;;;;3.92;3.60;;;;;;;;;;5100622;28;20212;-53
2022/03/19 06:25:45;;;;;;;3.58;3.28;;;;;;;;;;5100190;28;20211;-53
2022/03/19 06:28:12;;;;;;;3.67;3.38;;;;;;;;;;5100367;28;20204;-53
2022/03/19 06:30:40;;;;;;;3.88;3.58;;;;;;;;;;5100109;28;20314;-53
2022/03/19 06:33:08;;;;;;;4.22;3.88;;;;;;;;;;5100429;28;20258;-53
2022/03/19 06:38:25;;;;;;;3.60;3.30;;;;;;;;;;5099511;28;20199;-53
2022/03/19 06:40:54;;;;;;;3.70;3.35;;;;;;;;;;5100571;28;20592;-53
2022/03/19 06:43:22;;;;;;;3.60;3.30;;;;;;;;;;5100117;28;20554;-53
2022/03/19 06:45:50;;;;;;;3.80;3.50;;;;;;;;;;5099653;28;20211;-53
2022/03/19 06:48:18;;;;;;;3.78;3.47;;;;;;;;;;5099699;28;20200;-53
2022/03/19 06:50:45;;;;;;;4.20;3.63;;;;;;;;;;5099433;28;20297;-53
2022/03/19 06:53:13;;;;;;;3.83;3.53;;;;;;;;;;5099578;28;20214;-53
2022/03/19 06:55:42;;;;;;;3.70;3.40;;;;;;;;;;5099801;28;20214;-53
2022/03/19 06:58:10;;;;;;;4.00;3.70;;;;;;;;;;5099810;28;20285;-53
2022/03/19 07:00:39;;;;;;;3.95;3.58;;;;;;;;;;5099235;28;20566;-53
2022/03/19 07:03:07;;;;;;;3.72;3.33;;;;;;;;;;5098827;28;20211;-53
2022/03/19 07:05:35;;;;;;;3.85;3.55;;;;;;;;;;5099840;28;20203;-53
2022/03/19 07:08:03;;;;;;;4.20;3.80;;;;;;;;;;5098900;28;20548;-53
2022/03/19 07:10:31;;;;;;;3.83;3.22;;;;;;;;;;5099099;28;20538;-53
2022/03/19 07:13:00;;;;;;;3.90;3.50;;;;;;;;;;5098505;28;20238;-53
2022/03/19 07:15:28;;;;;;;3.72;3.42;;;;;;;;;;5098092;28;20579;-53
2022/03/19 07:17:56;;;;;;;3.97;3.58;;;;;;;;;;5099153;28;20222;-53
2022/03/19 07:20:24;;;;;;;3.80;3.50;;;;;;;;;;5098302;28;20481;-53
2022/03/19 07:22:53;;;;;;;4.22;3.83;;;;;;;;;;5097748;28;20204;-53
2022/03/19 07:25:21;;;;;;;4.03;3.72;;;;;;;;;;5098479;28;20210;-53
2022/03/19 07:27:50;;;;;;;4.00;3.70;;;;;;;;;;5097812;28;20236;-53
2022/03/19 07:30:23;;;;;;;3.88;3.58;;;;;;;;;;5097650;28;20604;-53
2022/03/19 07:32:50;;;;;;;4.18;3.85;;;;;;;;;;5099048;28;20214;-53
2022/03/19 07:35:18;;;;;;;4.22;3.83;;;;;;;;;;5098227;28;20283;-53
2022/03/19 07:37:46;;;;;;;3.92;3.63;;;;;;;;;;5098569;28;20273;-53
2022/03/19 07:40:15;;;;;;;4.05;3.75;;;;;;;;;;5097655;28;20203;-53
2022/03/19 07:42:42;;;;;;;4.13;3.72;;;;;;;;;;5098501;28;20302;-53
2022/03/19 07:45:10;;;;;;;4.47;4.07;;;;;;;;;;5098338;28;20282;-53
2022/03/19 07:47:39;;;;;;;4.38;3.97;;;;;;;;;;5097190;28;20266;-53
2022/03/19 07:50:07;;;;;;;3.53;3.22;;;;;;;;;;5098236;28;20546;-53
2022/03/19 07:52:35;;;;;;;4.72;4.32;;;;;;;;;;5096914;28;20204;-53
2022/03/19 07:55:02;;;;;;;4.13;3.72;;;;;;;;;;5097423;28;20485;-53
2022/03/19 07:57:30;;;;;;;4.38;3.97;;;;;;;;;;5097570;28;20203;-53
2022/03/19 07:59:57;;;;;;;3.92;3.60;;;;;;;;;;5097746;28;20298;-53
2022/03/19 08:02:26;;;;;;;3.75;3.45;;;;;;;;;;5097207;28;20203;-53
2022/03/19 08:04:55;;;;;;;3.88;3.58;;;;;;;;;;5098286;28;20203;-53
2022/03/19 08:07:23;;;;;;;4.18;3.78;;;;;;;;;;5097106;28;20243;-53
2022/03/19 08:09:51;;;;;;;4.07;3.78;;;;;;;;;;5097198;28;20262;-53
2022/03/19 08:12:18;;;;;;;4.93;4.15;;;;;;;;;;5096016;28;20246;-53
2022/03/19 08:14:46;;;;;;;3.53;3.22;;;;;;;;;;5097644;28;20294;-53
2022/03/19 08:17:14;;;;;;;4.25;3.83;;;;;;;;;;5097091;28;20207;-53
2022/03/19 08:19:42;;;;;;;4.20;3.90;;;;;;;;;;5095576;28;20204;-53
2022/03/19 08:22:11;;;;;;;4.07;3.67;;;;;;;;;;5095242;28;20223;-53
2022/03/19 08:24:39;;;;;;;3.88;3.58;;;;;;;;;;5095384;28;20204;-53
2022/03/19 08:27:10;;;;;;;3.97;3.67;;;;;;;;;;5096507;28;20211;-53
2022/03/19 08:29:38;;;;;;;4.00;3.60;;;;;;;;;;5097242;28;20215;-53
2022/03/19 08:32:08;;;;;;;4.10;3.78;;;;;;;;;;5096675;28;20238;-53
2022/03/19 08:34:36;;;;;;;4.20;3.85;;;;;;;;;;5096077;28;20196;-53
2022/03/19 08:37:03;;;;;;;4.32;3.92;;;;;;;;;;5096057;28;20207;-52
2022/03/19 08:42:18;;;;;;;3.85;3.53;;;;;;;;;;5094420;28;20223;-53
2022/03/19 08:44:45;;;;;;;4.30;4.00;;;;;;;;;;5095269;28;20269;-53
2022/03/19 08:47:13;;;;;;;4.30;4.00;;;;;;;;;;5094845;28;20235;-53
2022/03/19 08:49:41;;;;;;;5.28;4.78;;;;;;;;;;5095698;28;20302;-53
2022/03/19 08:52:08;;;;;;;30.55;21.95;;;;;;;;;;5094849;28;20281;-53
2022/03/19 08:54:37;;;;;;;29.95;23.35;;;;;;;;;;5094795;28;20195;-53
2022/03/19 08:57:06;;;;;;;25.48;19.73;;;;;;;;;;5094540;28;20208;-53
2022/03/19 08:59:33;;;;;;;22.58;17.85;;;;;;;;;;5094577;28;20284;-53
2022/03/19 09:02:01;;;;;;;19.48;15.90;;;;;;;;;;5094148;28;20223;-53
2022/03/19 09:04:29;;;;;;;19.55;15.65;;;;;;;;;;5094365;28;20203;-53
2022/03/19 09:06:57;;;;;;;18.73;14.65;;;;;;;;;;5095065;28;20214;-53
2022/03/19 09:09:24;;;;;;;19.33;14.27;;;;;;;;;;5095168;28;20207;-53
2022/03/19 09:11:53;;;;;;;18.35;14.30;;;;;;;;;;5094485;28;20211;-53
2022/03/19 09:14:22;;;;;;;20.00;15.45;;;;;;;;;;5093894;28;20262;-53
2022/03/19 09:16:49;;;;;;;16.90;13.88;;;;;;;;;;5093747;28;20200;-53
2022/03/19 09:19:17;;;;;;;16.92;14.00;;;;;;;;;;5093636;28;20196;-56
2022/03/19 09:21:44;;;;;;;17.35;13.77;;;;;;;;;;5093819;28;20235;-53
2022/03/19 09:24:15;;;;;;;15.65;13.30;;;;;;;;;;5093996;28;20205;-53
2022/03/19 09:26:42;;;;;;;16.65;13.25;;;;;;;;;;5093947;28;20294;-53
2022/03/19 09:29:14;;;;;;;14.90;12.30;;;;;;;;;;5094765;28;20239;-53
2022/03/19 09:31:42;;;;;;;13.55;11.95;;;;;;;;;;5093995;28;20255;-53
2022/03/19 09:34:10;;;;;;;15.95;12.27;;;;;;;;;;5092714;28;20210;-53
2022/03/19 09:36:37;;;;;;;14.75;11.55;;;;;;;;;;5091776;28;20635;-53
2022/03/19 09:39:05;;;;;;;15.20;11.68;;;;;;;;;;5092871;28;20591;-53
2022/03/19 09:41:33;;;;;;;15.48;11.52;;;;;;;;;;5093667;28;20482;-53
2022/03/19 09:44:01;;;;;;;15.02;12.25;;;;;;;;;;5092911;28;20234;-53
2022/03/19 09:46:31;;;;;;;13.48;11.32;;;;;;;;;;5093481;28;20250;-53
2022/03/19 09:48:58;;;;;;;14.73;11.13;;;;;;;;;;5092871;28;20618;-53
2022/03/19 09:51:27;;;;;;;14.55;11.57;;;;;;;;;;5087075;28;20220;-53
2022/03/19 09:53:56;;;;;;;12.63;10.15;;;;;;;;;;5092832;28;20195;-53
2022/03/19 09:56:24;;;;;;;12.95;10.43;;;;;;;;;;5098357;28;20269;-53
2022/03/19 09:58:52;;;;;;;12.20;10.70;;;;;;;;;;5078839;28;20349;-53
2022/03/19 10:01:20;;;;;;;12.98;9.80;;;;;;;;;;5076773;28;20209;-53
2022/03/19 10:03:51;;;;;;;13.30;10.93;;;;;;;;;;5077515;28;20222;-53
2022/03/19 10:09:04;;;;;;;12.52;10.32;;;;;;;;;;5077327;28;20195;-53
2022/03/19 10:11:32;;;;;;;11.95;9.57;;;;;;;;;;5077081;28;20310;-53
2022/03/19 10:14:01;;;;;;;12.00;9.38;;;;;;;;;;5078687;28;20266;-53
2022/03/19 10:16:29;;;;;;;12.63;9.95;;;;;;;;;;5084346;28;20571;-53
2022/03/19 10:18:59;;;;;;;10.32;8.82;;;;;;;;;;5097583;28;20575;-53
2022/03/19 10:21:28;;;;;;;12.13;9.40;;;;;;;;;;5097798;28;20211;-53
2022/03/19 10:23:59;;;;;;;10.27;9.00;;;;;;;;;;5098488;28;20631;-53
2022/03/19 10:26:28;;;;;;;10.45;8.70;;;;;;;;;;5098475;28;20633;-53
2022/03/19 10:28:59;;;;;;;9.52;8.30;;;;;;;;;;5098057;28;20290;-53
2022/03/19 10:31:31;;;;;;;11.25;8.23;;;;;;;;;;5097106;28;20235;-53
2022/03/19 10:34:00;;;;;;;9.20;8.30;;;;;;;;;;5097364;28;20202;-53
2022/03/19 10:36:31;;;;;;;9.50;7.95;;;;;;;;;;5098617;28;20214;-53
2022/03/19 10:38:59;;;;;;;9.70;8.70;;;;;;;;;;5097552;28;20208;-53
2022/03/19 10:41:27;;;;;;;12.63;10.35;;;;;;;;;;5097438;28;20196;-53
2022/03/19 10:43:54;;;;;;;19.67;16.38;;;;;;;;;;5096803;28;20206;-53
2022/03/19 10:46:22;;;;;;;18.42;15.45;;;;;;;;;;5096820;28;20512;-53
2022/03/19 10:48:52;;;;;;;17.10;15.15;;;;;;;;;;5097106;28;20207;-53
2022/03/19 10:51:22;;;;;;;14.60;12.90;;;;;;;;;;5096319;28;20242;-53
2022/03/19 10:53:52;;;;;;;15.23;12.95;;;;;;;;;;5096007;28;20204;-53
2022/03/19 10:56:21;;;;;;;14.32;11.93;;;;;;;;;;5095638;28;20609;-53
2022/03/19 10:58:48;;;;;;;14.55;11.88;;;;;;;;;;5096988;28;20243;-53
2022/03/19 11:01:16;;;;;;;13.77;11.75;;;;;;;;;;5096181;28;20261;-53
2022/03/19 11:03:45;;;;;;;13.32;11.43;;;;;;;;;;5095342;28;20487;-53
2022/03/19 11:06:13;;;;;;;11.20;9.93;;;;;;;;;;5095824;28;20226;-53
2022/03/19 11:08:43;;;;;;;11.50;10.30;;;;;;;;;;5096567;28;20203;-53
2022/03/19 11:11:12;;;;;;;10.77;9.68;;;;;;;;;;5096075;28;20226;-53
2022/03/19 11:13:43;;;;;;;11.70;10.43;;;;;;;;;;5093633;28;20257;-53
2022/03/19 11:16:11;;;;;;;11.55;9.85;;;;;;;;;;5094855;28;20208;-53
2022/03/19 11:18:41;;;;;;;12.48;9.55;;;;;;;;;;5095031;28;20216;-53
2022/03/19 11:21:09;;;;;;;10.82;9.25;;;;;;;;;;5095859;28;20206;-53
2022/03/19 11:23:40;;;;;;;10.98;9.57;;;;;;;;;;5095167;28;20583;-53
2022/03/19 11:26:12;;;;;;;10.38;8.90;;;;;;;;;;5096057;28;20280;-53
2022/03/19 11:28:40;;;;;;;10.57;9.35;;;;;;;;;;5096500;28;20199;-53
2022/03/19 11:31:09;;;;;;;10.80;9.00;;;;;;;;;;5094964;28;20235;-53
2022/03/19 11:33:37;;;;;;;10.02;9.00;;;;;;;;;;5096782;28;20203;-53
2022/03/19 11:36:06;;;;;;;10.45;8.77;;;;;;;;;;5096383;28;20653;-53
2022/03/19 11:38:34;;;;;;;9.20;8.25;;;;;;;;;;5095781;28;20647;-53
2022/03/19 11:41:01;;;;;;;8.88;7.95;;;;;;;;;;5095889;28;20294;-53
2022/03/19 11:43:31;;;;;;;8.75;7.85;;;;;;;;;;5095670;28;20542;-53
2022/03/19 11:46:00;;;;;;;8.73;7.82;;;;;;;;;;5096134;28;20195;-53
2022/03/19 11:48:42;;;;;;;9.70;7.90;;;;;;;;;;5095289;28;20606;-53
2022/03/19 11:51:31;;;;;;;8.25;7.38;;;;;;;;;;5094322;28;20239;-53
2022/03/19 11:54:00;;;;;;;8.82;7.70;;;;;;;;;;5096257;28;20226;-53
2022/03/19 11:56:28;;;;;;;8.70;7.25;;;;;;;;;;5094523;28;20714;-53
2022/03/19 11:58:58;;;;;;;7.78;6.97;;;;;;;;;;5095007;28;20196;-53
2022/03/19 12:01:44;;;;;;;7.97;6.82;;;;;;;;;;5094995;28;20204;-53
2022/03/19 12:04:12;;;;;;;7.85;7.03;;;;;;;;;;5093646;28;20199;-53
2022/03/19 12:06:41;;;;;;;8.43;6.90;;;;;;;;;;5094189;28;20214;-53
2022/03/19 12:09:09;;;;;;;8.05;6.72;;;;;;;;;;5095055;28;20212;-53
2022/03/19 12:11:37;;;;;;;8.32;6.65;;;;;;;;;;5094970;28;20318;-53
2022/03/19 12:14:15;;;;;;;6.78;6.05;;;;;;;;;;5092820;28;20266;-53
2022/03/19 12:16:43;;;;;;;7.13;6.05;;;;;;;;;;5094207;28;20482;-53
2022/03/19 12:19:11;;;;;;;7.10;6.40;;;;;;;;;;5093181;28;20532;-53
2022/03/19 12:21:41;;;;;;;7.35;6.40;;;;;;;;;;5093659;28;20231;-53
2022/03/19 12:24:24;;;;;;;7.60;6.90;;;;;;;;;;5093954;28;20266;-53
2022/03/19 12:26:51;;;;;;;8.05;7.25;;;;;;;;;;5093604;28;20208;-53
2022/03/19 12:29:22;;;;;;;7.57;6.65;;;;;;;;;;5093819;28;20204;-53
2022/03/19 12:31:51;;;;;;;6.72;6.03;;;;;;;;;;5093653;28;20227;-53
2022/03/19 12:34:20;;;;;;;7.68;6.45;;;;;;;;;;5093421;28;20290;-53
2022/03/19 12:36:48;;;;;;;6.55;5.95;;;;;;;;;;5093010;28;20237;-53
2022/03/19 12:39:15;;;;;;;7.00;6.30;;;;;;;;;;5094099;28;20294;-53
2022/03/19 12:41:43;;;;;;;6.55;5.93;;;;;;;;;;5093020;28;20371;-53
2022/03/19 12:44:19;;;;;;;6.70;6.00;;;;;;;;;;5094243;28;20302;-53
2022/03/19 12:46:53;;;;;;;7.07;6.38;;;;;;;;;;5093378;28;20235;-53
2022/03/19 12:49:21;;;;;;;6.10;5.50;;;;;;;;;;5093766;28;20217;-53
2022/03/19 12:51:49;;;;;;;6.05;5.45;;;;;;;;;;5093015;28;20231;-53
2022/03/19 12:54:21;;;;;;;6.28;5.65;;;;;;;;;;5093528;28;20204;-53
2022/03/19 12:56:49;;;;;;;5.80;5.20;;;;;;;;;;5093242;28;20217;-53
2022/03/19 12:59:18;;;;;;;6.90;5.65;;;;;;;;;;5093935;28;20195;-53
2022/03/19 13:01:49;;;;;;;6.20;5.57;;;;;;;;;;5094317;28;20287;-53
2022/03/19 13:04:20;;;;;;;8.77;5.78;;;;;;;;;;5091900;28;20207;-53
2022/03/19 13:06:48;;;;;;;5.95;5.40;;;;;;;;;;5092386;28;20214;-53
2022/03/19 13:09:15;;;;;;;5.93;5.38;;;;;;;;;;5093425;28;20208;-53
2022/03/19 13:11:44;;;;;;;5.90;5.30;;;;;;;;;;5092805;28;20629;-53
2022/03/19 13:14:12;;;;;;;6.13;5.22;;;;;;;;;;5093905;28;20302;-53
2022/03/19 13:16:40;;;;;;;6.10;5.60;;;;;;;;;;5092959;28;20408;-53
2022/03/19 13:19:09;;;;;;;5.47;4.97;;;;;;;;;;5091708;28;20211;-53
2022/03/19 13:21:37;;;;;;;6.25;5.32;;;;;;;;;;5092263;28;20302;-53
2022/03/19 13:24:07;;;;;;;6.15;4.80;;;;;;;;;;5092110;28;20310;-53
2022/03/19 13:26:36;;;;;;;7.78;5.50;;;;;;;;;;5092204;28;20206;-53
2022/03/19 13:29:04;;;;;;;5.93;5.43;;;;;;;;;;5092311;28;20495;-53
2022/03/19 13:31:34;;;;;;;5.47;4.97;;;;;;;;;;5092216;28;20436;-53
2022/03/19 13:34:03;;;;;;;5.60;5.10;;;;;;;;;;5092011;28;20269;-53
2022/03/19 13:36:34;;;;;;;5.90;5.03;;;;;;;;;;5092491;28;20195;-53
2022/03/19 13:39:02;;;;;;;5.20;4.70;;;;;;;;;;5091938;28;20204;-53
2022/03/19 13:41:30;;;;;;;6.10;5.50;;;;;;;;;;5091783;28;20230;-53
2022/03/19 13:44:02;;;;;;;5.20;4.78;;;;;;;;;;5091360;28;20199;-53
2022/03/19 13:46:30;;;;;;;5.38;4.88;;;;;;;;;;5092219;28;20254;-53
2022/03/19 13:49:16;;;;;;;5.43;4.93;;;;;;;;;;5091089;28;20200;-53
2022/03/19 13:51:46;;;;;;;6.47;5.43;;;;;;;;;;5090826;28;20277;-53
2022/03/19 13:54:14;;;;;;;5.57;5.07;;;;;;;;;;5090426;28;20288;-53
2022/03/19 13:57:05;;;;;;;5.97;5.47;;;;;;;;;;5090346;28;20204;-53
2022/03/19 13:59:33;;;;;;;5.20;4.80;;;;;;;;;;5065910;28;20266;-53
2022/03/19 14:02:04;;;;;;;5.53;4.97;;;;;;;;;;5091452;28;20302;-53
2022/03/19 14:04:36;;;;;;;5.80;5.00;;;;;;;;;;5091634;28;20230;-53
2022/03/19 14:07:05;;;;;;;5.53;4.90;;;;;;;;;;5091741;28;20214;-53
2022/03/19 14:09:33;;;;;;;5.68;5.18;;;;;;;;;;5092308;28;20196;-53
2022/03/19 14:12:03;;;;;;;5.40;4.85;;;;;;;;;;5093308;28;20457;-53
2022/03/19 14:14:37;;;;;;;5.57;5.10;;;;;;;;;;5091537;28;20572;-53
2022/03/19 14:17:05;;;;;;;5.53;5.03;;;;;;;;;;5091537;28;20520;-53
2022/03/19 14:19:32;;;;;;;5.50;5.10;;;;;;;;;;5089751;28;20286;-53
2022/03/19 14:22:01;;;;;;;5.07;4.65;;;;;;;;;;5092606;28;20204;-53
2022/03/19 14:24:32;;;;;;;6.05;5.22;;;;;;;;;;5090390;28;20206;-53
2022/03/19 14:26:59;;;;;;;5.32;4.93;;;;;;;;;;5091094;28;20207;-53
2022/03/19 14:29:27;;;;;;;5.72;5.10;;;;;;;;;;5090910;28;20306;-53
2022/03/19 14:31:54;;;;;;;5.00;4.60;;;;;;;;;;5090850;28;20285;-53
2022/03/19 14:34:22;;;;;;;5.65;5.15;;;;;;;;;;5091381;28;20261;-53
2022/03/19 14:36:49;;;;;;;5.35;4.95;;;;;;;;;;5093214;28;20204;-53
2022/03/19 14:39:17;;;;;;;5.28;4.78;;;;;;;;;;5094603;28;20290;-53
2022/03/19 14:41:46;;;;;;;6.15;5.65;;;;;;;;;;5094410;28;20702;-54
2022/03/19 14:44:16;;;;;;;6.05;5.40;;;;;;;;;;5094691;28;20214;-53
2022/03/19 14:46:43;;;;;;;5.68;5.18;;;;;;;;;;5096483;28;20258;-53
2022/03/19 14:49:10;;;;;;;5.65;5.18;;;;;;;;;;5094889;28;20310;-53
2022/03/19 14:51:38;;;;;;;5.60;5.10;;;;;;;;;;5092746;28;20290;-53
2022/03/19 14:54:05;;;;;;;5.85;5.35;;;;;;;;;;5095100;28;20223;-53
2022/03/19 14:56:39;;;;;;;5.63;5.22;;;;;;;;;;5095334;28;20534;-53
2022/03/19 14:59:08;;;;;;;5.70;5.22;;;;;;;;;;5093719;28;20568;-53
2022/03/19 15:01:35;;;;;;;5.80;5.30;;;;;;;;;;5093912;28;20211;-53
2022/03/19 15:04:03;;;;;;;4.78;4.38;;;;;;;;;;5093790;28;20195;-53